createdAt,value
2022-10-07T00:00:58.475Z,101734.84
2022-10-07T00:03:27.009Z,101734.69
2022-10-07T00:06:00.601Z,101730.41
2022-10-07T00:08:27.306Z,101728.03
2022-10-07T00:10:54.033Z,101731.41
2022-10-07T00:13:20.603Z,101734.00
2022-10-07T00:15:47.275Z,101726.94
2022-10-07T00:18:13.881Z,101734.03
2022-10-07T00:20:40.821Z,101726.50
2022-10-07T00:23:08.083Z,101719.63
2022-10-07T00:25:38.169Z,101713.00
2022-10-07T00:28:05.557Z,101724.44
2022-10-07T00:30:32.663Z,101713.59
2022-10-07T00:32:59.365Z,101721.66
2022-10-07T00:35:26.107Z,101714.13
2022-10-07T00:37:52.777Z,101720.59
2022-10-07T00:40:19.392Z,101718.25
2022-10-07T00:42:46.877Z,101720.13
2022-10-07T00:45:16.903Z,101710.53
2022-10-07T00:47:49.891Z,101718.22
2022-10-07T00:50:25.862Z,101721.63
2022-10-07T00:52:57.676Z,101723.16
2022-10-07T00:55:27.419Z,101714.47
2022-10-07T00:57:57.263Z,101709.34
2022-10-07T01:00:24.170Z,101700.75
2022-10-07T01:02:52.021Z,101695.84
2022-10-07T01:05:19.255Z,101698.16
2022-10-07T01:07:48.297Z,101699.22
2022-10-07T01:10:19.927Z,101697.13
2022-10-07T01:12:54.225Z,101686.31
2022-10-07T01:15:32.619Z,101683.22
2022-10-07T01:18:23.605Z,101688.81
2022-10-07T01:21:07.502Z,101677.44
2022-10-07T01:23:51.545Z,101672.69
2022-10-07T01:26:48.317Z,101661.16
2022-10-07T01:29:29.542Z,101668.88
2022-10-07T01:32:06.728Z,101664.03
2022-10-07T01:34:36.066Z,101660.34
2022-10-07T01:37:06.695Z,101664.19
2022-10-07T01:39:42.200Z,101658.19
2022-10-07T01:42:09.939Z,101658.56
2022-10-07T01:44:37.166Z,101665.03
2022-10-07T01:47:04.549Z,101655.16
2022-10-07T01:49:31.179Z,101650.06
2022-10-07T01:52:33.036Z,101653.59
2022-10-07T01:55:02.801Z,101657.88
2022-10-07T01:57:38.593Z,101652.28
2022-10-07T02:00:07.870Z,101652.84
2022-10-07T02:03:08.187Z,101649.44
2022-10-07T02:05:46.333Z,101657.22
2022-10-07T02:08:42.388Z,101651.66
2022-10-07T02:11:16.733Z,101637.34
2022-10-07T02:14:11.963Z,101640.56
2022-10-07T02:16:41.594Z,101642.44
2022-10-07T02:19:36.625Z,101627.66
2022-10-07T02:22:04.203Z,101626.06
2022-10-07T02:24:35.637Z,101627.91
2022-10-07T02:27:16.253Z,101619.16
2022-10-07T02:29:48.599Z,101619.63
2022-10-07T02:32:21.245Z,101620.59
2022-10-07T02:34:54.832Z,101615.91
2022-10-07T02:37:29.794Z,101611.47
2022-10-07T02:39:57.591Z,101603.25
2022-10-07T02:42:42.040Z,101608.81
2022-10-07T02:45:29.453Z,101607.34
2022-10-07T02:48:09.414Z,101598.81
2022-10-07T02:50:39.990Z,101596.28
2022-10-07T02:53:10.991Z,101581.59
2022-10-07T02:55:37.850Z,101590.34
2022-10-07T02:58:07.862Z,101586.78
2022-10-07T03:00:39.587Z,101572.16
2022-10-07T03:03:08.079Z,101580.63
2022-10-07T03:05:50.382Z,101574.03
2022-10-07T03:08:17.427Z,101562.31
2022-10-07T03:10:45.439Z,101563.00
2022-10-07T03:13:15.767Z,101562.94
2022-10-07T03:15:47.744Z,101552.19
2022-10-07T03:18:29.208Z,101545.97
2022-10-07T03:21:04.909Z,101557.53
2022-10-07T03:23:31.708Z,101557.84
2022-10-07T03:26:00.817Z,101562.00
2022-10-07T03:28:35.299Z,101557.78
2022-10-07T03:31:07.767Z,101561.06
2022-10-07T03:33:37.344Z,101559.97
2022-10-07T03:36:05.855Z,101548.19
2022-10-07T03:38:33.039Z,101549.16
2022-10-07T03:41:01.878Z,101543.97
2022-10-07T03:43:28.844Z,101538.75
2022-10-07T03:45:56.881Z,101532.78
2022-10-07T03:48:23.704Z,101534.22
2022-10-07T03:51:00.535Z,101522.09
2022-10-07T03:53:29.760Z,101518.91
2022-10-07T03:55:58.360Z,101524.97
2022-10-07T03:58:25.774Z,101522.19
2022-10-07T04:00:52.406Z,101523.34
2022-10-07T04:03:19.626Z,101530.38
2022-10-07T04:05:59.670Z,101530.47
2022-10-07T04:08:29.191Z,101527.00
2022-10-07T04:10:59.714Z,101527.50
2022-10-07T04:13:27.024Z,101524.44
2022-10-07T04:15:54.381Z,101520.34
2022-10-07T04:18:23.009Z,101516.47
2022-10-07T04:20:50.831Z,101522.81
2022-10-07T04:23:17.496Z,101516.25
2022-10-07T04:25:46.728Z,101524.94
2022-10-07T04:28:20.294Z,101531.94
2022-10-07T04:30:53.877Z,101537.00
2022-10-07T04:33:26.341Z,101543.22
2022-10-07T04:35:55.225Z,101528.63
2022-10-07T04:38:26.296Z,101527.09
2022-10-07T04:40:55.782Z,101531.09
2022-10-07T04:43:23.532Z,101537.22
2022-10-07T04:46:04.790Z,101536.25
2022-10-07T04:48:33.975Z,101527.66
2022-10-07T04:51:02.671Z,101517.66
2022-10-07T04:53:29.445Z,101521.28
2022-10-07T04:55:56.411Z,101524.00
2022-10-07T04:58:24.467Z,101511.91
2022-10-07T05:00:53.821Z,101509.88
2022-10-07T05:03:25.337Z,101509.06
2022-10-07T05:05:55.079Z,101506.13
2022-10-07T05:08:24.486Z,101510.69
2022-10-07T05:11:00.780Z,101509.91
2022-10-07T05:13:31.091Z,101514.06
2022-10-07T05:16:00.694Z,101510.66
2022-10-07T05:18:31.303Z,101509.84
2022-10-07T05:21:10.124Z,101502.56
2022-10-07T05:23:49.816Z,101501.75
2022-10-07T05:26:22.167Z,101499.13
2022-10-07T05:28:54.448Z,101503.78
2022-10-07T05:31:28.077Z,101501.84
2022-10-07T05:33:59.727Z,101506.88
2022-10-07T05:36:27.153Z,101502.25
2022-10-07T05:38:59.606Z,101502.25
2022-10-07T05:41:44.947Z,101503.09
2022-10-07T05:44:13.840Z,101491.31
2022-10-07T05:46:41.415Z,101489.41
2022-10-07T05:49:08.512Z,101502.50
2022-10-07T05:51:36.307Z,101503.56
2022-10-07T05:54:03.201Z,101494.78
2022-10-07T05:56:38.075Z,101501.25
2022-10-07T05:59:04.975Z,101509.25
2022-10-07T06:01:32.430Z,101500.00
2022-10-07T06:04:03.721Z,101501.16
2022-10-07T06:06:34.351Z,101509.53
2022-10-07T06:09:22.036Z,101502.34
2022-10-07T06:12:10.328Z,101495.59
2022-10-07T06:14:38.595Z,101501.00
2022-10-07T06:17:06.800Z,101505.06
2022-10-07T06:19:36.426Z,101489.47
2022-10-07T06:22:03.650Z,101497.50
2022-10-07T06:24:33.714Z,101501.09
2022-10-07T06:27:04.135Z,101514.75
2022-10-07T06:29:31.597Z,101507.41
2022-10-07T06:31:58.966Z,101505.53
2022-10-07T06:34:29.635Z,101505.94
2022-10-07T06:36:56.430Z,101500.81
2022-10-07T06:39:23.856Z,101512.97
2022-10-07T06:41:54.366Z,101519.88
2022-10-07T06:44:59.549Z,101514.44
2022-10-07T06:47:26.523Z,101504.78
2022-10-07T06:49:53.177Z,101512.38
2022-10-07T06:52:19.796Z,101512.75
2022-10-07T06:54:47.375Z,101504.94
2022-10-07T06:57:40.388Z,101502.56
2022-10-07T07:00:01.312Z,101496.50
2022-10-07T07:02:30.584Z,101492.16
2022-10-07T07:04:58.473Z,101501.25
2022-10-07T07:07:26.436Z,101496.22
2022-10-07T07:09:53.784Z,101490.00
2022-10-07T07:12:25.485Z,101488.06
2022-10-07T07:14:54.283Z,101491.31
2022-10-07T07:17:21.473Z,101485.09
2022-10-07T07:19:48.083Z,101485.41
2022-10-07T07:22:15.572Z,101489.41
2022-10-07T07:24:43.108Z,101487.09
2022-10-07T07:27:09.746Z,101485.50
2022-10-07T07:29:37.008Z,101489.53
2022-10-07T07:32:04.505Z,101490.97
2022-10-07T07:34:36.303Z,101490.56
2022-10-07T07:37:03.057Z,101487.19
2022-10-07T07:39:36.203Z,101490.75
2022-10-07T07:42:08.598Z,101489.09
2022-10-07T07:44:36.884Z,101484.56
2022-10-07T07:47:06.231Z,101477.22
2022-10-07T07:49:34.037Z,101495.94
2022-10-07T07:52:01.061Z,101485.47
2022-10-07T07:54:34.014Z,101478.00
2022-10-07T07:57:04.101Z,101481.81
2022-10-07T07:59:33.051Z,101476.97
2022-10-07T08:02:00.721Z,101478.59
2022-10-07T08:04:28.631Z,101485.97
2022-10-07T08:06:56.292Z,101472.94
2022-10-07T08:09:24.383Z,101471.91
2022-10-07T08:11:52.629Z,101472.34
2022-10-07T08:14:19.314Z,101462.94
2022-10-07T08:16:50.342Z,101468.44
2022-10-07T08:19:18.087Z,101461.22
2022-10-07T08:21:45.169Z,101456.03
2022-10-07T08:24:17.189Z,101459.41
2022-10-07T08:26:44.410Z,101457.13
2022-10-07T08:29:13.228Z,101453.00
2022-10-07T08:31:42.318Z,101448.38
2022-10-07T08:34:10.270Z,101453.25
2022-10-07T08:36:37.474Z,101445.31
2022-10-07T08:39:05.338Z,101451.78
2022-10-07T08:41:35.386Z,101446.66
2022-10-07T08:44:21.020Z,101444.38
2022-10-07T08:47:09.488Z,101444.53
2022-10-07T08:49:39.100Z,101431.56
2022-10-07T08:52:23.417Z,101442.34
2022-10-07T08:54:50.091Z,101439.56
2022-10-07T08:57:46.471Z,101439.63
2022-10-07T09:00:18.580Z,101424.66
2022-10-07T09:03:05.502Z,101430.38
2022-10-07T09:05:39.015Z,101410.47
2022-10-07T09:08:21.357Z,101432.78
2022-10-07T09:10:50.208Z,101414.59
2022-10-07T09:13:24.689Z,101416.91
2022-10-07T09:16:27.074Z,101416.94
2022-10-07T09:18:57.694Z,101424.41
2022-10-07T09:21:29.189Z,101409.88
2022-10-07T09:24:01.553Z,101413.31
2022-10-07T09:26:28.216Z,101410.72
2022-10-07T09:28:54.850Z,101407.47
2022-10-07T09:31:23.797Z,101408.16
2022-10-07T09:33:52.906Z,101395.53
2022-10-07T09:36:20.136Z,101396.84
2022-10-07T09:38:49.754Z,101394.78
2022-10-07T09:41:32.143Z,101413.44
2022-10-07T09:44:03.998Z,101391.44
2022-10-07T09:46:47.991Z,101387.63
2022-10-07T09:49:31.587Z,101386.88
2022-10-07T09:52:05.678Z,101379.91
2022-10-07T09:54:36.233Z,101372.34
2022-10-07T09:57:05.695Z,101369.25
2022-10-07T09:59:35.253Z,101375.19
2022-10-07T10:02:24.502Z,101369.22
2022-10-07T10:04:56.324Z,101364.56
2022-10-07T10:07:33.678Z,101366.28
2022-10-07T10:10:06.138Z,101365.94
2022-10-07T10:12:40.638Z,101364.44
2022-10-07T10:15:23.186Z,101351.97
2022-10-07T10:17:51.039Z,101350.63
2022-10-07T10:20:23.652Z,101357.00
2022-10-07T10:22:51.478Z,101358.88
2022-10-07T10:25:46.109Z,101354.56
2022-10-07T10:28:30.148Z,101343.16
2022-10-07T10:31:08.332Z,101359.03
2022-10-07T10:33:49.021Z,101356.66
2022-10-07T10:36:27.059Z,101344.44
2022-10-07T10:39:04.041Z,101343.47
2022-10-07T10:41:50.581Z,101335.81
2022-10-07T10:44:38.442Z,101330.78
2022-10-07T10:47:24.889Z,101327.06
2022-10-07T10:50:06.644Z,101333.00
2022-10-07T10:52:45.827Z,101339.88
2022-10-07T10:55:36.887Z,101326.44
2022-10-07T10:58:10.309Z,101326.13
2022-10-07T11:01:04.897Z,101322.56
2022-10-07T11:03:46.202Z,101305.16
2022-10-07T11:06:17.059Z,101298.47
2022-10-07T11:08:47.281Z,101297.84
2022-10-07T11:11:18.845Z,101288.50
2022-10-07T11:13:54.316Z,101291.22
2022-10-07T11:16:27.111Z,101299.38
2022-10-07T11:19:02.231Z,101288.50
2022-10-07T11:21:41.163Z,101280.06
2022-10-07T11:24:26.615Z,101275.28
2022-10-07T11:27:14.923Z,101282.41
2022-10-07T11:29:49.345Z,101272.03
2022-10-07T11:33:12.770Z,101272.91
2022-10-07T11:35:51.717Z,101260.41
2022-10-07T11:38:22.489Z,101264.31
2022-10-07T11:40:56.086Z,101253.19
2022-10-07T11:43:34.671Z,101243.78
2022-10-07T11:46:28.916Z,101243.63
2022-10-07T11:49:20.221Z,101251.09
2022-10-07T11:51:52.452Z,101232.16
2022-10-07T11:54:22.730Z,101227.69
2022-10-07T11:56:56.130Z,101233.38
2022-10-07T11:59:46.413Z,101224.59
2022-10-07T12:02:28.289Z,101209.50
2022-10-07T12:04:59.698Z,101206.22
2022-10-07T12:07:35.374Z,101210.47
2022-10-07T12:10:01.961Z,101209.28
2022-10-07T12:12:44.633Z,101204.19
2022-10-07T12:15:31.575Z,101190.09
2022-10-07T12:18:07.320Z,101170.28
2022-10-07T12:20:44.777Z,101171.50
2022-10-07T12:23:18.160Z,101173.09
2022-10-07T12:25:47.727Z,101170.75
2022-10-07T12:28:30.614Z,101164.34
2022-10-07T12:31:23.439Z,101164.88
2022-10-07T12:34:10.315Z,101151.75
2022-10-07T12:36:41.982Z,101160.66
2022-10-07T12:39:12.241Z,101169.28
2022-10-07T12:41:40.511Z,101168.00
2022-10-07T12:44:32.151Z,101168.50
2022-10-07T12:47:13.883Z,101174.00
2022-10-07T12:49:48.946Z,101164.78
2022-10-07T12:52:21.052Z,101168.56
2022-10-07T12:55:08.430Z,101160.78
2022-10-07T12:57:38.021Z,101143.47
2022-10-07T13:00:07.999Z,101146.00
2022-10-07T13:03:03.342Z,101146.91
2022-10-07T13:05:48.333Z,101141.75
2022-10-07T13:09:02.673Z,101132.25
2022-10-07T13:11:55.060Z,101126.56
2022-10-07T13:14:48.784Z,101121.78
2022-10-07T13:17:27.830Z,101111.38
2022-10-07T13:20:14.223Z,101110.31
2022-10-07T13:22:48.896Z,101114.38
2022-10-07T13:25:20.186Z,101106.28
2022-10-07T13:27:53.777Z,101105.69
2022-10-07T13:30:36.206Z,101092.97
2022-10-07T13:33:25.264Z,101084.13
2022-10-07T13:36:05.122Z,101094.31
2022-10-07T13:38:32.108Z,101087.97
2022-10-07T13:41:07.802Z,101089.34
2022-10-07T13:43:37.242Z,101087.50
2022-10-07T13:46:07.653Z,101089.03
2022-10-07T13:48:40.739Z,101083.19
2022-10-07T13:51:20.662Z,101084.22
2022-10-07T13:53:54.092Z,101096.66
2022-10-07T13:56:26.624Z,101088.97
2022-10-07T13:58:55.477Z,101083.16
2022-10-07T14:01:27.453Z,101076.97
2022-10-07T14:04:11.944Z,101078.78
2022-10-07T14:06:57.438Z,101059.72
2022-10-07T14:09:32.815Z,101057.44
2022-10-07T14:12:09.062Z,101048.84
2022-10-07T14:14:38.517Z,101050.31
2022-10-07T14:17:42.132Z,101028.09
2022-10-07T14:20:44.840Z,101039.22
2022-10-07T14:23:25.832Z,101034.59
2022-10-07T14:26:06.781Z,101025.81
2022-10-07T14:28:35.645Z,101025.47
2022-10-07T14:31:27.212Z,101019.81
2022-10-07T14:34:15.334Z,101018.47
2022-10-07T14:37:04.496Z,101023.31
2022-10-07T14:39:39.309Z,101016.97
2022-10-07T14:42:11.588Z,101021.91
2022-10-07T14:44:38.225Z,101021.19
2022-10-07T14:47:19.054Z,101017.00
2022-10-07T14:49:45.711Z,101020.50
2022-10-07T14:52:18.453Z,101011.53
2022-10-07T14:54:45.393Z,101013.03
2022-10-07T14:57:12.019Z,101018.00
2022-10-07T14:59:38.694Z,101006.06
2022-10-07T15:02:05.397Z,101009.34
2022-10-07T15:04:32.151Z,101000.09
2022-10-07T15:06:58.910Z,101009.28
2022-10-07T15:09:25.484Z,101000.41
2022-10-07T15:11:54.955Z,100999.75
2022-10-07T15:14:21.663Z,100991.59
2022-10-07T15:16:48.444Z,100980.00
2022-10-07T15:19:17.552Z,100982.50
2022-10-07T15:21:44.516Z,100981.25
2022-10-07T15:24:13.612Z,100980.69
2022-10-07T15:26:41.317Z,100975.81
2022-10-07T15:29:08.485Z,100973.97
2022-10-07T15:31:35.150Z,100969.75
2022-10-07T15:34:01.930Z,100978.69
2022-10-07T15:36:29.597Z,100963.91
2022-10-07T15:39:02.030Z,100958.16
2022-10-07T15:41:31.582Z,100957.44
2022-10-07T15:44:02.244Z,100957.22
2022-10-07T15:46:28.985Z,100955.44
2022-10-07T15:48:56.427Z,100956.69
2022-10-07T15:51:25.680Z,100960.03
2022-10-07T15:53:55.238Z,100955.72
2022-10-07T15:56:21.940Z,100945.63
2022-10-07T15:58:48.569Z,100946.00
2022-10-07T16:01:15.550Z,100947.81
2022-10-07T16:03:45.305Z,100942.66
2022-10-07T16:06:24.160Z,100943.38
2022-10-07T16:08:54.035Z,100947.97
2022-10-07T16:11:21.336Z,100928.09
2022-10-07T16:13:48.795Z,100935.03
2022-10-07T16:16:26.507Z,100939.94
2022-10-07T16:18:56.546Z,100939.31
2022-10-07T16:21:27.908Z,100946.09
2022-10-07T16:24:21.366Z,100931.69
2022-10-07T16:26:53.136Z,100927.25
2022-10-07T16:29:42.472Z,100926.25
2022-10-07T16:32:10.943Z,100926.50
2022-10-07T16:34:39.438Z,100939.00
2022-10-07T16:37:06.296Z,100936.78
2022-10-07T16:39:33.025Z,100931.88
2022-10-07T16:42:00.052Z,100922.56
2022-10-07T17:02:04.939Z,100918.50
2022-10-07T17:04:32.003Z,100902.94
2022-10-07T17:06:58.636Z,100913.59
2022-10-07T17:09:25.298Z,100919.03
2022-10-07T17:11:52.025Z,100900.81
2022-10-07T17:14:21.022Z,100900.59
2022-10-07T17:16:53.337Z,100895.03
2022-10-07T17:19:22.807Z,100905.25
2022-10-07T17:21:50.488Z,100905.13
2022-10-07T17:24:19.303Z,100906.38
2022-10-07T17:26:46.450Z,100902.19
2022-10-07T17:29:18.178Z,100902.22
2022-10-07T17:31:48.368Z,100894.75
2022-10-07T17:34:16.167Z,100905.34
2022-10-07T17:36:47.781Z,100896.03
2022-10-07T17:39:15.280Z,100895.50
2022-10-07T17:41:42.120Z,100900.81
2022-10-07T17:44:11.726Z,100893.72
2022-10-07T17:46:39.764Z,100889.00
2022-10-07T17:49:08.327Z,100881.38
2022-10-07T17:51:36.924Z,100882.84
2022-10-07T17:54:05.786Z,100886.50
2022-10-07T17:56:34.218Z,100885.16
2022-10-07T17:59:01.891Z,100885.31
2022-10-07T18:01:31.167Z,100881.53
2022-10-07T18:03:59.809Z,100885.00
2022-10-07T18:06:28.943Z,100889.03
2022-10-07T18:08:56.002Z,100872.38
2022-10-07T18:11:22.609Z,100877.25
2022-10-07T18:14:07.680Z,100869.66
2022-10-07T18:16:35.348Z,100871.50
2022-10-07T18:19:02.455Z,100865.19
2022-10-07T18:21:31.418Z,100863.50
2022-10-07T18:24:01.534Z,100866.94
2022-10-07T18:26:28.973Z,100858.19
2022-10-07T18:28:57.478Z,100864.13
2022-10-07T18:31:24.353Z,100861.94
2022-10-07T18:33:51.135Z,100854.19
2022-10-07T18:36:19.245Z,100855.75
2022-10-07T18:38:46.386Z,100853.16
2022-10-07T18:41:15.236Z,100854.72
2022-10-07T18:43:43.531Z,100842.47
2022-10-07T18:46:13.583Z,100842.59
2022-10-07T18:48:42.072Z,100841.56
2022-10-07T18:51:10.948Z,100836.84
2022-10-07T18:53:39.936Z,100839.47
2022-10-07T18:56:13.136Z,100833.56
2022-10-07T18:58:42.718Z,100835.16
2022-10-07T19:01:18.311Z,100832.25
2022-10-07T19:03:45.802Z,100820.91
2022-10-07T19:06:19.192Z,100823.56
2022-10-07T19:08:46.287Z,100822.91
2022-10-07T19:11:20.471Z,100824.19
2022-10-07T19:13:49.952Z,100817.56
2022-10-07T19:16:22.816Z,100819.44
2022-10-07T19:18:51.884Z,100813.00
2022-10-07T19:21:20.072Z,100811.72
2022-10-07T19:23:52.185Z,100803.28
2022-10-07T19:26:21.949Z,100805.03
2022-10-07T19:28:49.869Z,100806.50
2022-10-07T19:31:29.084Z,100796.47
2022-10-07T19:33:58.199Z,100800.28
2022-10-07T19:36:25.361Z,100798.56
2022-10-07T19:38:56.353Z,100797.94
2022-10-07T19:41:26.168Z,100801.50
2022-10-07T19:43:53.098Z,100797.88
2022-10-07T19:46:22.361Z,100789.81
2022-10-07T19:48:49.795Z,100783.00
2022-10-07T19:51:19.363Z,100795.78
2022-10-07T19:53:47.996Z,100792.84
2022-10-07T19:56:17.474Z,100781.25
2022-10-07T19:58:48.926Z,100789.28
2022-10-07T20:01:21.031Z,100784.59
2022-10-07T20:03:49.241Z,100783.88
2022-10-07T20:06:18.938Z,100773.94
2022-10-07T20:08:46.667Z,100781.72
2022-10-07T20:11:14.591Z,100775.81
2022-10-07T20:13:42.511Z,100780.50
2022-10-07T20:16:24.321Z,100767.75
2022-10-07T20:18:58.354Z,100766.31
2022-10-07T20:21:24.964Z,100761.88
2022-10-07T20:23:53.852Z,100749.06
2022-10-07T20:26:26.877Z,100754.72
2022-10-07T20:28:56.162Z,100747.66
2022-10-07T20:31:25.358Z,100743.63
2022-10-07T20:33:55.637Z,100740.84
2022-10-07T20:36:36.735Z,100734.75
2022-10-07T20:39:32.363Z,100742.38
2022-10-07T20:42:18.091Z,100738.34
2022-10-07T20:44:46.529Z,100738.31
2022-10-07T20:47:13.226Z,100725.25
2022-10-07T20:49:41.933Z,100730.38
2022-10-07T20:52:17.887Z,100727.66
2022-10-07T20:54:45.624Z,100732.34
2022-10-07T20:57:15.802Z,100728.69
2022-10-07T20:59:43.041Z,100730.28
2022-10-07T21:02:11.372Z,100720.69
2022-10-07T21:04:40.469Z,100721.19
2022-10-07T21:07:09.549Z,100719.03
2022-10-07T21:09:36.652Z,100723.00
2022-10-07T21:12:09.796Z,100707.59
2022-10-07T21:14:37.309Z,100714.81
2022-10-07T21:17:04.910Z,100712.44
2022-10-07T21:19:32.922Z,100714.00
2022-10-07T21:21:59.836Z,100704.56
2022-10-07T21:24:26.484Z,100692.31
2022-10-07T21:26:53.106Z,100706.88
2022-10-07T21:29:19.887Z,100688.91
2022-10-07T21:31:46.848Z,100685.66
2022-10-07T21:34:13.438Z,100685.50
2022-10-07T21:36:54.029Z,100669.50
2022-10-07T21:39:20.825Z,100688.56
2022-10-07T21:41:49.049Z,100661.91
2022-10-07T21:44:16.042Z,100681.63
2022-10-07T21:46:43.877Z,100669.84
2022-10-07T21:49:10.544Z,100661.06
2022-10-07T21:51:38.039Z,100657.28
2022-10-07T21:54:04.995Z,100658.03
2022-10-07T21:56:33.069Z,100652.72
2022-10-07T21:59:01.523Z,100647.06
2022-10-07T22:01:28.646Z,100643.50
2022-10-07T22:04:01.340Z,100638.50
2022-10-07T22:06:49.039Z,100641.16
2022-10-07T22:09:18.424Z,100643.78
2022-10-07T22:11:45.050Z,100637.28
2022-10-07T22:14:13.110Z,100637.78
2022-10-07T22:16:40.276Z,100635.94
2022-10-07T22:19:07.035Z,100622.63
2022-10-07T22:21:35.881Z,100636.28
2022-10-07T22:24:05.067Z,100622.81
2022-10-07T22:26:34.226Z,100621.03
2022-10-07T22:29:01.135Z,100619.09
2022-10-07T22:31:28.005Z,100619.06
2022-10-07T22:33:57.864Z,100611.59
2022-10-07T22:36:25.535Z,100606.41
2022-10-07T22:38:55.584Z,100592.41
2022-10-07T22:41:24.057Z,100588.66
2022-10-07T22:43:52.609Z,100584.78
2022-10-07T22:46:26.473Z,100589.28
2022-10-07T22:48:56.231Z,100578.50
2022-10-07T22:51:23.419Z,100589.16
2022-10-07T22:53:53.695Z,100579.13
2022-10-07T22:56:21.942Z,100575.78
2022-10-07T22:59:00.175Z,100576.44
2022-10-07T23:01:29.589Z,100565.84
2022-10-07T23:04:02.911Z,100560.22
2022-10-07T23:06:34.735Z,100566.16
2022-10-07T23:09:03.088Z,100563.72
2022-10-07T23:11:30.299Z,100562.06
2022-10-07T23:13:58.442Z,100564.25
2022-10-07T23:16:29.358Z,100549.72
2022-10-07T23:18:56.841Z,100547.44
2022-10-07T23:21:25.772Z,100544.88
2022-10-07T23:24:01.731Z,100548.94
2022-10-07T23:26:31.704Z,100542.13
2022-10-07T23:28:59.915Z,100540.25
2022-10-07T23:31:28.351Z,100538.41
2022-10-07T23:33:56.242Z,100539.25
2022-10-07T23:36:23.888Z,100534.00
2022-10-07T23:38:51.484Z,100527.91
2022-10-07T23:41:20.990Z,100525.88
2022-10-07T23:43:51.964Z,100531.75
2022-10-07T23:46:21.790Z,100534.38
2022-10-07T23:48:49.404Z,100526.97
2022-10-07T23:51:19.029Z,100520.63
2022-10-07T23:53:46.004Z,100514.19
2022-10-07T23:56:13.196Z,100516.19
2022-10-07T23:58:40.150Z,100517.81
